createdAt,value
2018-04-01T00:00:19.643Z,22.07
2018-04-01T00:02:51.446Z,20.47
2018-04-01T00:05:23.309Z,20.80
2018-04-01T00:07:54.809Z,19.67
2018-04-01T00:10:26.610Z,20.13
2018-04-01T00:12:58.005Z,23.37
2018-04-01T00:15:29.524Z,24.03
2018-04-01T00:18:01.424Z,22.83
2018-04-01T00:20:32.830Z,22.03
2018-04-01T00:23:04.376Z,21.00
2018-04-01T00:25:36.286Z,23.03
2018-04-01T00:28:08.056Z,23.13
2018-04-01T00:30:39.616Z,24.30
2018-04-01T00:33:12.519Z,27.30
2018-04-01T00:35:44.392Z,24.57
2018-04-01T00:38:15.904Z,24.70
2018-04-01T00:40:48.467Z,24.37
2018-04-01T00:43:19.986Z,26.93
2018-04-01T00:45:51.447Z,26.40
2018-04-01T00:48:23.145Z,27.70
2018-04-01T00:50:54.563Z,26.90
2018-04-01T00:53:27.063Z,28.70
2018-04-01T00:55:58.468Z,26.57
2018-04-01T00:58:30.787Z,27.17
2018-04-01T01:01:02.233Z,27.57
2018-04-01T01:03:33.724Z,27.07
2018-04-01T01:06:05.143Z,28.03
2018-04-01T01:08:36.613Z,27.83
2018-04-01T01:11:08.368Z,27.77
2018-04-01T01:13:40.207Z,28.93
2018-04-01T01:16:12.004Z,27.57
2018-04-01T01:18:43.497Z,27.60
2018-04-01T01:21:15.853Z,29.87
2018-04-01T01:23:47.232Z,29.37
2018-04-01T01:26:18.629Z,29.63
2018-04-01T01:28:50.168Z,29.77
2018-04-01T01:31:21.742Z,24.33
2018-04-01T01:33:53.371Z,31.17
2018-04-01T01:36:24.757Z,29.80
2018-04-01T01:38:57.042Z,26.50
2018-04-01T01:41:28.504Z,30.67
2018-04-01T01:44:00.576Z,28.60
2018-04-01T01:46:32.045Z,27.23
2018-04-01T01:49:03.446Z,29.27
2018-04-01T01:51:35.756Z,32.90
2018-04-01T01:54:07.457Z,27.80
2018-04-01T01:56:39.331Z,27.70
2018-04-01T01:59:12.472Z,26.13
2018-04-01T02:01:44.736Z,30.30
2018-04-01T02:04:16.670Z,27.83
2018-04-01T02:06:48.219Z,29.23
2018-04-01T02:09:19.977Z,26.00
2018-04-01T02:11:51.394Z,27.33
2018-04-01T02:14:23.439Z,25.60
2018-04-01T02:16:54.818Z,27.07
2018-04-01T02:19:26.249Z,28.60
2018-04-01T02:21:58.471Z,25.93
2018-04-01T02:24:30.522Z,25.93
2018-04-01T02:27:02.361Z,27.40
2018-04-01T02:29:34.393Z,25.53
2018-04-01T02:32:05.822Z,25.83
2018-04-01T02:34:37.230Z,25.90
2018-04-01T02:37:08.835Z,25.67
2018-04-01T02:39:40.606Z,25.23
2018-04-01T02:42:12.042Z,27.07
2018-04-01T02:44:44.564Z,27.80
2018-04-01T02:47:15.928Z,30.23
2018-04-01T02:49:47.603Z,26.97
2018-04-01T02:52:19.106Z,23.87
2018-04-01T02:54:50.783Z,26.73
2018-04-01T02:57:22.537Z,27.03
2018-04-01T02:59:54.515Z,26.30
2018-04-01T03:02:26.041Z,23.97
2018-04-01T03:04:57.563Z,25.80
2018-04-01T03:07:29.254Z,25.43
2018-04-01T03:10:00.617Z,25.70
2018-04-01T03:12:32.425Z,27.70
2018-04-01T03:15:05.919Z,23.90
2018-04-01T03:17:37.470Z,23.00
2018-04-01T03:20:10.303Z,23.33
2018-04-01T03:22:42.093Z,24.30
2018-04-01T03:25:13.542Z,24.30
2018-04-01T03:27:45.231Z,24.30
2018-04-01T03:30:17.056Z,27.17
2018-04-01T03:32:48.721Z,27.07
2018-04-01T03:35:20.105Z,24.80
2018-04-01T03:37:51.806Z,25.07
2018-04-01T03:40:23.192Z,24.87
2018-04-01T03:42:54.591Z,22.43
2018-04-01T03:45:26.063Z,23.90
2018-04-01T03:47:57.566Z,25.10
2018-04-01T03:50:29.202Z,25.57
2018-04-01T03:53:01.119Z,26.27
2018-04-01T03:55:32.801Z,23.67
2018-04-01T03:58:04.358Z,26.57
2018-04-01T04:00:36.162Z,24.73
2018-04-01T04:03:07.638Z,24.73
2018-04-01T04:05:39.213Z,25.23
2018-04-01T04:08:10.935Z,23.70
2018-04-01T04:10:42.470Z,27.57
2018-04-01T04:13:14.249Z,23.27
2018-04-01T04:15:46.078Z,23.97
2018-04-01T04:18:17.466Z,25.20
2018-04-01T04:20:49.091Z,25.67
2018-04-01T04:23:20.739Z,22.47
2018-04-01T04:25:52.397Z,22.63
2018-04-01T04:28:23.950Z,23.67
2018-04-01T04:30:55.644Z,22.17
2018-04-01T04:33:27.111Z,23.53
2018-04-01T04:35:58.854Z,23.50
2018-04-01T04:38:30.304Z,23.77
2018-04-01T04:41:01.690Z,23.47
2018-04-01T04:43:33.155Z,20.40
2018-04-01T04:46:04.585Z,22.37
2018-04-01T04:48:36.187Z,23.27
2018-04-01T04:51:07.594Z,22.53
2018-04-01T04:53:39.308Z,20.53
2018-04-01T04:56:10.673Z,20.57
2018-04-01T04:58:42.128Z,18.93
2018-04-01T05:01:13.649Z,19.57
2018-04-01T05:03:45.228Z,18.53
2018-04-01T05:06:17.080Z,19.83
2018-04-01T05:08:49.437Z,17.77
2018-04-01T05:11:21.119Z,18.40
2018-04-01T05:13:52.627Z,20.03
2018-04-01T05:16:24.507Z,18.03
2018-04-01T05:18:55.886Z,19.17
2018-04-01T05:21:27.485Z,19.50
2018-04-01T05:23:59.438Z,18.50
2018-04-01T05:26:31.114Z,18.80
2018-04-01T05:29:03.021Z,18.63
2018-04-01T05:31:34.561Z,18.60
2018-04-01T05:34:06.056Z,18.90
2018-04-01T05:36:37.874Z,18.23
2018-04-01T05:39:09.541Z,19.57
2018-04-01T05:41:42.437Z,19.17
2018-04-01T05:44:14.114Z,18.60
2018-04-01T05:46:46.123Z,19.73
2018-04-01T05:49:17.508Z,20.13
2018-04-01T05:51:48.921Z,19.13
2018-04-01T05:54:20.566Z,20.97
2018-04-01T05:56:51.938Z,19.40
2018-04-01T05:59:23.793Z,19.77
2018-04-01T06:01:55.753Z,17.83
2018-04-01T06:04:27.420Z,18.77
2018-04-01T06:06:58.896Z,18.20
2018-04-01T06:09:30.337Z,18.37
2018-04-01T06:12:02.841Z,21.77
2018-04-01T06:14:34.549Z,18.20
2018-04-01T06:17:06.207Z,18.00
2018-04-01T06:19:38.010Z,17.40
2018-04-01T06:22:10.426Z,18.57
2018-04-01T06:24:43.079Z,18.23
2018-04-01T06:27:14.682Z,18.00
2018-04-01T06:29:46.210Z,19.20
2018-04-01T06:32:18.486Z,18.43
2018-04-01T06:34:50.470Z,18.33
2018-04-01T06:37:22.049Z,18.87
2018-04-01T06:39:54.008Z,17.37
2018-04-01T06:42:25.437Z,17.67
2018-04-01T06:44:57.049Z,19.97
2018-04-01T06:47:29.271Z,19.27
2018-04-01T06:50:00.689Z,17.30
2018-04-01T06:52:33.771Z,15.77
2018-04-01T06:55:06.322Z,25.17
2018-04-01T06:57:39.422Z,17.17
2018-04-01T07:00:13.399Z,16.87
2018-04-01T07:02:45.075Z,18.17
2018-04-01T07:05:16.639Z,17.47
2018-04-01T07:07:48.157Z,17.93
2018-04-01T07:10:19.975Z,18.87
2018-04-01T07:12:53.531Z,15.93
2018-04-01T07:15:25.438Z,17.33
2018-04-01T07:17:58.081Z,20.37
2018-04-01T07:20:29.833Z,18.43
2018-04-01T07:23:02.224Z,20.13
2018-04-01T07:25:38.768Z,19.27
2018-04-01T07:28:11.368Z,19.47
2018-04-01T07:30:52.944Z,18.80
2018-04-01T07:33:25.453Z,17.93
2018-04-01T07:35:58.026Z,19.93
2018-04-01T07:38:30.677Z,18.60
2018-04-01T07:41:02.302Z,18.43
2018-04-01T07:43:35.462Z,18.97
2018-04-01T07:46:06.970Z,21.00
2018-04-01T07:48:39.932Z,20.47
2018-04-01T07:51:11.517Z,20.37
2018-04-01T07:53:43.123Z,18.47
2018-04-01T07:56:15.036Z,19.13
2018-04-01T07:58:50.543Z,17.97
2018-04-01T08:01:22.277Z,18.20
2018-04-01T08:03:54.794Z,19.50
2018-04-01T08:06:28.099Z,16.40
2018-04-01T08:09:00.465Z,19.27
2018-04-01T08:11:32.049Z,21.17
2018-04-01T08:14:04.093Z,22.57
2018-04-01T08:16:37.906Z,20.90
2018-04-01T08:19:10.077Z,19.37
2018-04-01T08:21:48.013Z,17.77
2018-04-01T08:24:19.952Z,20.47
2018-04-01T08:27:04.610Z,19.50
2018-04-01T08:29:39.293Z,18.50
2018-04-01T08:32:10.969Z,19.33
2018-04-01T08:34:45.509Z,18.73
2018-04-01T08:37:17.578Z,19.37
2018-04-01T08:39:49.597Z,20.07
2018-04-01T08:42:23.668Z,18.30
2018-04-01T08:44:56.021Z,18.70
2018-04-01T08:47:31.698Z,19.00
2018-04-01T08:50:13.400Z,18.50
2018-04-01T08:52:45.620Z,21.37
2018-04-01T08:55:18.219Z,19.90
2018-04-01T08:57:50.934Z,18.87
2018-04-01T09:00:22.707Z,19.00
2018-04-01T09:02:55.352Z,19.20
2018-04-01T09:05:27.348Z,18.50
2018-04-01T09:07:59.053Z,18.83
2018-04-01T09:10:41.764Z,19.40
2018-04-01T09:13:13.515Z,17.20
2018-04-01T09:15:45.230Z,16.87
2018-04-01T09:18:16.839Z,16.57
2018-04-01T09:20:49.816Z,15.57
2018-04-01T09:23:21.663Z,17.30
2018-04-01T09:25:53.641Z,15.93
2018-04-01T09:28:25.429Z,15.07
2018-04-01T09:30:56.922Z,13.50
2018-04-01T09:33:28.910Z,14.83
2018-04-01T09:36:01.857Z,14.10
2018-04-01T09:38:33.936Z,14.17
2018-04-01T09:41:05.681Z,15.37
2018-04-01T09:43:37.496Z,13.60
2018-04-01T09:46:09.527Z,14.47
2018-04-01T09:48:42.354Z,14.60
2018-04-01T09:51:15.599Z,13.87
2018-04-01T09:53:47.636Z,14.47
2018-04-01T09:56:22.039Z,14.97
2018-04-01T09:58:54.599Z,13.57
2018-04-01T10:01:27.632Z,14.37
2018-04-01T10:04:00.622Z,16.07
2018-04-01T10:06:34.279Z,14.67
2018-04-01T10:09:07.851Z,13.90
2018-04-01T10:11:41.237Z,14.07
2018-04-01T10:14:15.110Z,14.33
2018-04-01T10:16:48.436Z,13.27
2018-04-01T10:19:21.782Z,14.50
2018-04-01T10:21:55.858Z,15.50
2018-04-01T10:24:29.234Z,14.17
2018-04-01T10:27:02.748Z,14.97
2018-04-01T10:29:36.925Z,14.20
2018-04-01T10:32:10.782Z,14.63
2018-04-01T10:34:44.314Z,14.00
2018-04-01T10:37:18.952Z,13.63
2018-04-01T10:39:52.789Z,14.10
2018-04-01T10:42:26.478Z,13.90
2018-04-01T10:45:00.974Z,12.83
2018-04-01T10:47:36.662Z,15.07
2018-04-01T10:50:16.946Z,12.93
2018-04-01T10:52:51.375Z,13.13
2018-04-01T10:55:25.210Z,13.60
2018-04-01T10:57:57.202Z,13.37
2018-04-01T11:00:29.711Z,12.53
2018-04-01T11:03:01.798Z,11.20
2018-04-01T11:05:34.961Z,12.73
2018-04-01T11:08:07.408Z,12.07
2018-04-01T11:10:38.832Z,10.50
2018-04-01T11:13:10.231Z,10.13
2018-04-01T11:15:42.230Z,10.63
2018-04-01T11:18:13.826Z,10.07
2018-04-01T11:20:45.900Z,10.17
2018-04-01T11:23:18.058Z,9.77
2018-04-01T11:25:51.780Z,9.60
2018-04-01T11:28:23.991Z,9.13
2018-04-01T11:30:56.077Z,9.90
2018-04-01T11:33:30.216Z,9.23
2018-04-01T11:36:02.136Z,8.30
2018-04-01T11:38:33.709Z,7.10
2018-04-01T11:41:05.705Z,6.43
2018-04-01T11:43:37.714Z,6.50
2018-04-01T11:46:10.645Z,7.07
2018-04-01T11:48:42.365Z,6.33
2018-04-01T11:51:15.188Z,6.33
2018-04-01T11:53:49.624Z,5.73
2018-04-01T11:56:21.946Z,5.50
2018-04-01T11:58:53.653Z,5.40
2018-04-01T12:01:25.714Z,5.70
2018-04-01T12:03:57.420Z,4.97
2018-04-01T12:06:36.912Z,4.87
2018-04-01T12:09:09.061Z,5.73
2018-04-01T12:11:40.734Z,5.20
2018-04-01T12:14:12.649Z,5.07
2018-04-01T12:16:44.611Z,5.77
2018-04-01T12:19:17.032Z,5.00
2018-04-01T12:21:49.542Z,5.20
2018-04-01T12:24:21.749Z,5.40
2018-04-01T12:26:57.613Z,5.73
2018-04-01T12:29:29.755Z,5.77
2018-04-01T12:32:02.522Z,4.80
2018-04-01T12:34:34.255Z,7.07
2018-04-01T12:37:06.014Z,7.10
2018-04-01T12:39:37.421Z,6.23
2018-04-01T12:42:09.244Z,7.90
2018-04-01T12:44:40.818Z,8.60
2018-04-01T12:47:21.824Z,8.13
2018-04-01T12:49:54.710Z,7.53
2018-04-01T12:52:27.350Z,8.53
2018-04-01T12:54:59.457Z,6.97
2018-04-01T12:57:31.101Z,6.20
2018-04-01T13:00:06.859Z,11.20
2018-04-01T13:02:39.699Z,9.93
2018-04-01T13:05:11.629Z,5.60
2018-04-01T13:07:43.681Z,4.90
2018-04-01T13:10:18.604Z,4.83
2018-04-01T13:12:51.005Z,4.40
2018-04-01T13:15:22.912Z,5.47
2018-04-01T13:17:55.507Z,3.80
2018-04-01T13:20:27.802Z,3.97
2018-04-01T13:23:11.367Z,3.80
2018-04-01T13:25:51.686Z,3.80
2018-04-01T13:28:51.603Z,4.23
2018-04-01T13:31:24.834Z,4.20
2018-04-01T13:33:57.572Z,5.50
2018-04-01T13:36:29.467Z,5.90
2018-04-01T13:39:01.554Z,7.53
2018-04-01T13:41:33.118Z,9.27
2018-04-01T13:44:04.669Z,9.93
2018-04-01T13:46:36.314Z,10.47
2018-04-01T13:49:10.958Z,10.23
2018-04-01T13:51:43.383Z,9.50
2018-04-01T13:54:14.941Z,9.63
2018-04-01T13:56:46.560Z,8.77
2018-04-01T13:59:20.217Z,8.77
2018-04-01T14:01:54.741Z,8.53
2018-04-01T14:04:27.254Z,7.70
2018-04-01T14:06:59.668Z,9.30
2018-04-01T14:09:33.410Z,8.03
2018-04-01T14:12:06.339Z,7.13
2018-04-01T14:14:38.301Z,7.20
2018-04-01T14:17:10.242Z,6.90
2018-04-01T14:19:41.793Z,6.93
2018-04-01T14:22:14.741Z,8.30
2018-04-01T14:24:46.662Z,9.17
2018-04-01T14:27:22.164Z,9.30
2018-04-01T14:29:54.773Z,7.40
2018-04-01T14:32:30.772Z,7.57
2018-04-01T14:35:03.103Z,7.83
2018-04-01T14:37:37.604Z,6.73
2018-04-01T14:40:10.781Z,6.87
2018-04-01T14:42:43.237Z,6.40
2018-04-01T14:45:15.320Z,7.27
2018-04-01T14:47:47.565Z,8.27
2018-04-01T14:50:20.522Z,7.80
2018-04-01T14:52:52.518Z,7.83
2018-04-01T14:55:24.238Z,7.97
2018-04-01T14:57:55.669Z,7.80
2018-04-01T15:00:27.358Z,8.13
2018-04-01T15:02:59.237Z,7.63
2018-04-01T15:05:33.160Z,7.57
2018-04-01T15:08:04.560Z,11.87
2018-04-01T15:10:38.528Z,13.50
2018-04-01T15:13:11.148Z,13.33
2018-04-01T15:15:42.793Z,15.07
2018-04-01T15:18:14.705Z,13.33
2018-04-01T15:20:46.349Z,14.53
2018-04-01T15:23:17.806Z,14.27
2018-04-01T15:25:50.387Z,14.43
2018-04-01T15:28:21.818Z,15.60
2018-04-01T15:30:56.263Z,14.10
2018-04-01T15:33:27.812Z,13.57
2018-04-01T15:36:09.418Z,12.83
2018-04-01T15:38:45.198Z,12.43
2018-04-01T15:41:18.699Z,12.83
2018-04-01T15:43:50.624Z,14.10
2018-04-01T15:46:22.293Z,13.10
2018-04-01T15:48:53.982Z,13.73
2018-04-01T15:51:26.242Z,13.80
2018-04-01T15:53:58.211Z,13.77
2018-04-01T15:56:29.810Z,12.77
2018-04-01T15:59:01.719Z,14.03
2018-04-01T16:01:34.188Z,14.30
2018-04-01T16:04:06.036Z,13.07
2018-04-01T16:06:43.528Z,13.47
2018-04-01T16:09:16.440Z,14.00
2018-04-01T16:11:48.077Z,13.80
2018-04-01T16:14:20.524Z,13.43
2018-04-01T16:16:52.032Z,13.63
2018-04-01T16:19:25.346Z,13.80
2018-04-01T16:21:58.770Z,12.47
2018-04-01T16:24:32.408Z,12.87
2018-04-01T16:27:04.180Z,12.27
2018-04-01T16:29:35.893Z,15.30
2018-04-01T16:32:07.466Z,12.30
2018-04-01T16:34:40.780Z,12.30
2018-04-01T16:37:13.769Z,13.13
2018-04-01T16:39:45.541Z,13.20
2018-04-01T16:42:17.592Z,12.77
2018-04-01T16:44:49.748Z,14.57
2018-04-01T16:47:21.727Z,18.27
2018-04-01T16:49:54.572Z,13.27
2018-04-01T16:52:26.406Z,12.93
2018-04-01T16:54:57.834Z,12.30
2018-04-01T16:57:29.570Z,11.83
2018-04-01T17:00:02.330Z,11.73
2018-04-01T17:02:36.562Z,12.43
2018-04-01T17:05:08.661Z,12.77
2018-04-01T17:07:40.551Z,12.87
2018-04-01T17:10:12.319Z,11.70
2018-04-01T17:12:43.965Z,9.20
2018-04-01T17:15:15.639Z,10.10
2018-04-01T17:17:47.900Z,11.57
2018-04-01T17:20:20.345Z,12.17
2018-04-01T17:22:53.464Z,13.00
2018-04-01T17:25:42.534Z,12.23
2018-04-01T17:28:16.521Z,14.50
2018-04-01T17:30:49.790Z,13.87
2018-04-01T17:33:22.291Z,20.17
2018-04-01T17:35:53.930Z,15.53
2018-04-01T17:38:26.221Z,13.30
2018-04-01T17:40:58.500Z,11.27
2018-04-01T17:43:30.596Z,11.37
2018-04-01T17:46:02.251Z,13.13
2018-04-01T17:48:33.853Z,13.17
2018-04-01T17:51:06.418Z,21.60
2018-04-01T17:53:38.018Z,17.07
2018-04-01T17:56:10.047Z,15.80
2018-04-01T17:58:42.060Z,12.20
2018-04-01T18:01:13.967Z,11.70
2018-04-01T18:03:45.483Z,11.90
2018-04-01T18:06:17.276Z,10.97
2018-04-01T18:08:48.793Z,11.90
2018-04-01T18:11:20.559Z,10.93
2018-04-01T18:13:52.924Z,9.33
2018-04-01T18:16:25.390Z,8.87
2018-04-01T18:18:57.461Z,8.67
2018-04-01T18:21:29.440Z,9.20
2018-04-01T18:24:01.591Z,8.17
2018-04-01T18:26:33.186Z,8.37
2018-04-01T18:29:08.667Z,7.80
2018-04-01T18:31:41.674Z,8.07
2018-04-01T18:34:13.667Z,7.73
2018-04-01T18:36:46.089Z,7.10
2018-04-01T18:39:22.069Z,7.77
2018-04-01T18:41:54.034Z,8.03
2018-04-01T18:44:26.302Z,7.20
2018-04-01T18:46:58.263Z,7.13
2018-04-01T18:49:30.032Z,8.10
2018-04-01T18:52:03.151Z,8.67
2018-04-01T18:54:35.489Z,9.43
2018-04-01T18:57:07.446Z,8.50
2018-04-01T18:59:39.510Z,8.53
2018-04-01T19:02:11.116Z,8.20
2018-04-01T19:04:42.936Z,10.03
2018-04-01T19:07:14.765Z,8.90
2018-04-01T19:09:46.498Z,10.37
2018-04-01T19:12:18.588Z,8.77
2018-04-01T19:14:50.855Z,8.33
2018-04-01T19:17:30.322Z,8.77
2018-04-01T19:20:06.395Z,8.70
2018-04-01T19:22:40.779Z,8.07
2018-04-01T19:25:14.445Z,8.20
2018-04-01T19:27:48.190Z,8.73
2018-04-01T19:30:22.514Z,7.97
2018-04-01T19:32:56.183Z,8.67
2018-04-01T19:35:29.853Z,8.10
2018-04-01T19:38:04.037Z,8.00
2018-04-01T19:40:37.773Z,8.00
2018-04-01T19:43:11.674Z,7.47
2018-04-01T19:45:46.034Z,8.40
2018-04-01T19:48:19.807Z,8.10
2018-04-01T19:50:54.804Z,7.70
2018-04-01T19:53:32.989Z,6.80
2018-04-01T19:56:11.063Z,7.40
2018-04-01T19:58:49.910Z,8.40
2018-04-01T20:01:23.599Z,9.80
2018-04-01T20:04:11.573Z,8.20
2018-04-01T20:06:47.725Z,8.90
2018-04-01T20:09:26.568Z,9.27
2018-04-01T20:12:01.267Z,9.40
2018-04-01T20:14:35.390Z,10.20
2018-04-01T20:17:10.035Z,9.80
2018-04-01T20:19:44.057Z,8.50
2018-04-01T20:22:18.855Z,8.47
2018-04-01T20:24:54.010Z,8.70
2018-04-01T20:27:28.051Z,8.20
2018-04-01T20:30:03.209Z,8.30
2018-04-01T20:32:38.767Z,8.30
2018-04-01T20:35:13.622Z,9.10
2018-04-01T20:37:47.326Z,8.70
2018-04-01T20:40:20.976Z,8.10
2018-04-01T20:42:54.709Z,8.17
2018-04-01T20:45:31.062Z,10.33
2018-04-01T20:48:04.632Z,9.47
2018-04-01T20:50:38.051Z,10.17
2018-04-01T20:53:12.788Z,12.10
2018-04-01T20:55:46.210Z,11.00
2018-04-01T20:58:19.724Z,9.57
2018-04-01T21:00:53.906Z,12.40
2018-04-01T21:03:27.287Z,11.00
2018-04-01T21:06:00.976Z,9.97
2018-04-01T21:08:34.893Z,13.20
2018-04-01T21:11:08.589Z,13.37
2018-04-01T21:13:42.191Z,14.47
2018-04-01T21:16:19.430Z,12.47
2018-04-01T21:18:53.136Z,13.80
2018-04-01T21:21:26.482Z,13.97
2018-04-01T21:24:10.362Z,15.53
2018-04-01T21:26:44.151Z,13.37
2018-04-01T21:29:18.272Z,11.90
2018-04-01T21:31:51.780Z,12.97
2018-04-01T21:34:25.392Z,14.27
2018-04-01T21:39:24.330Z,12.77
2018-04-01T21:41:59.673Z,12.07
2018-04-01T21:44:33.341Z,11.37
2018-04-01T21:47:06.698Z,11.53
2018-04-01T21:49:40.521Z,11.67
2018-04-01T21:52:14.069Z,11.30
2018-04-01T21:54:51.609Z,12.70
2018-04-01T21:57:25.417Z,14.57
2018-04-01T21:59:59.434Z,12.70
2018-04-01T22:02:34.248Z,12.90
2018-04-01T22:05:09.707Z,13.90
2018-04-01T22:07:43.695Z,13.30
2018-04-01T22:10:22.073Z,14.37
2018-04-01T22:12:55.630Z,14.67
2018-04-01T22:15:28.957Z,14.20
2018-04-01T22:18:08.523Z,13.60
2018-04-01T22:20:42.457Z,13.87
2018-04-01T22:23:16.337Z,12.83
2018-04-01T22:25:50.194Z,15.40
2018-04-01T22:28:24.255Z,14.23
2018-04-01T22:30:57.900Z,14.30
2018-04-01T22:33:31.350Z,13.93
2018-04-01T22:36:05.256Z,13.53
2018-04-01T22:41:17.423Z,13.73
2018-04-01T22:43:52.933Z,13.13
2018-04-01T22:46:27.878Z,13.00
2018-04-01T22:49:07.448Z,12.67
2018-04-01T22:51:42.364Z,14.10
2018-04-01T22:54:16.428Z,12.80
2018-04-01T22:56:55.888Z,12.23
2018-04-01T22:59:32.258Z,14.03
2018-04-01T23:02:07.074Z,11.90
2018-04-01T23:04:42.235Z,13.10
2018-04-01T23:07:16.841Z,12.93
2018-04-01T23:09:51.682Z,13.73
2018-04-01T23:12:26.226Z,13.07
2018-04-01T23:15:00.110Z,18.10
2018-04-01T23:17:39.854Z,11.80
2018-04-01T23:20:13.737Z,13.37
2018-04-01T23:22:47.764Z,15.47
2018-04-01T23:25:21.694Z,14.07
2018-04-01T23:27:55.267Z,12.83
2018-04-01T23:30:30.406Z,14.53
2018-04-01T23:33:04.025Z,13.83
2018-04-01T23:35:37.970Z,13.40
2018-04-01T23:38:11.667Z,12.87
2018-04-01T23:40:45.348Z,14.10
2018-04-01T23:43:19.169Z,13.60
2018-04-01T23:45:52.900Z,12.90
2018-04-01T23:48:26.519Z,14.07
2018-04-01T23:51:00.589Z,13.53
2018-04-01T23:53:34.214Z,13.60
2018-04-01T23:56:11.101Z,12.60
2018-04-01T23:58:45.377Z,13.73
